sensor_id;sensor_type;location;lat;lon;timestamp;P1;durP1;ratioP1;P2;durP2;ratioP2
12658;SDS011;6394;52.488;13.386;2022-12-29T00:00:55;1.60;;;1.03;;
12658;SDS011;6394;52.488;13.386;2022-12-29T00:03:26;2.43;;;1.00;;
12658;SDS011;6394;52.488;13.386;2022-12-29T00:05:54;2.63;;;1.67;;
12658;SDS011;6394;52.488;13.386;2022-12-29T00:08:21;3.57;;;1.77;;
12658;SDS011;6394;52.488;13.386;2022-12-29T00:11:05;1.97;;;1.10;;
12658;SDS011;6394;52.488;13.386;2022-12-29T00:13:33;3.07;;;1.67;;
12658;SDS011;6394;52.488;13.386;2022-12-29T00:16:23;3.03;;;1.40;;
12658;SDS011;6394;52.488;13.386;2022-12-29T00:18:50;4.07;;;1.20;;
12658;SDS011;6394;52.488;13.386;2022-12-29T00:21:18;2.33;;;1.00;;
12658;SDS011;6394;52.488;13.386;2022-12-29T00:24:03;1.27;;;1.13;;
12658;SDS011;6394;52.488;13.386;2022-12-29T00:26:48;1.97;;;1.00;;
12658;SDS011;6394;52.488;13.386;2022-12-29T00:29:34;1.23;;;1.07;;
12658;SDS011;6394;52.488;13.386;2022-12-29T00:32:18;2.03;;;1.07;;
12658;SDS011;6394;52.488;13.386;2022-12-29T00:35:03;1.03;;;0.93;;
12658;SDS011;6394;52.488;13.386;2022-12-29T00:37:34;1.53;;;1.03;;
12658;SDS011;6394;52.488;13.386;2022-12-29T00:40:19;4.00;;;1.07;;
12658;SDS011;6394;52.488;13.386;2022-12-29T00:43:05;1.47;;;1.37;;
12658;SDS011;6394;52.488;13.386;2022-12-29T00:45:50;5.97;;;1.10;;
12658;SDS011;6394;52.488;13.386;2022-12-29T00:48:17;1.73;;;1.07;;
12658;SDS011;6394;52.488;13.386;2022-12-29T00:51:05;1.77;;;1.00;;
12658;SDS011;6394;52.488;13.386;2022-12-29T00:53:31;2.40;;;1.10;;
12658;SDS011;6394;52.488;13.386;2022-12-29T00:55:58;1.37;;;0.80;;
12658;SDS011;6394;52.488;13.386;2022-12-29T00:58:28;1.20;;;0.90;;
12658;SDS011;6394;52.488;13.386;2022-12-29T01:01:00;1.53;;;1.20;;
12658;SDS011;6394;52.488;13.386;2022-12-29T01:03:28;2.20;;;1.10;;
12658;SDS011;6394;52.488;13.386;2022-12-29T01:05:55;1.27;;;1.00;;
12658;SDS011;6394;52.488;13.386;2022-12-29T01:08:22;2.00;;;1.10;;
12658;SDS011;6394;52.488;13.386;2022-12-29T01:10:57;2.00;;;1.00;;
12658;SDS011;6394;52.488;13.386;2022-12-29T01:13:23;1.43;;;1.33;;
12658;SDS011;6394;52.488;13.386;2022-12-29T01:15:52;3.10;;;1.00;;
12658;SDS011;6394;52.488;13.386;2022-12-29T01:18:19;2.57;;;1.13;;
12658;SDS011;6394;52.488;13.386;2022-12-29T01:20:47;1.73;;;1.13;;
12658;SDS011;6394;52.488;13.386;2022-12-29T01:23:14;1.60;;;1.13;;
12658;SDS011;6394;52.488;13.386;2022-12-29T01:25:41;1.07;;;0.97;;
12658;SDS011;6394;52.488;13.386;2022-12-29T01:28:09;1.53;;;0.83;;
12658;SDS011;6394;52.488;13.386;2022-12-29T01:30:36;2.47;;;0.90;;
12658;SDS011;6394;52.488;13.386;2022-12-29T01:33:04;1.40;;;0.83;;
12658;SDS011;6394;52.488;13.386;2022-12-29T01:35:32;1.60;;;1.10;;
12658;SDS011;6394;52.488;13.386;2022-12-29T01:37:59;1.70;;;0.97;;
12658;SDS011;6394;52.488;13.386;2022-12-29T01:40:26;2.83;;;0.83;;
12658;SDS011;6394;52.488;13.386;2022-12-29T01:42:54;2.20;;;0.80;;
12658;SDS011;6394;52.488;13.386;2022-12-29T01:45:21;2.00;;;1.10;;
12658;SDS011;6394;52.488;13.386;2022-12-29T01:47:49;1.60;;;1.10;;
12658;SDS011;6394;52.488;13.386;2022-12-29T01:50:19;2.53;;;1.03;;
12658;SDS011;6394;52.488;13.386;2022-12-29T01:52:49;1.93;;;0.80;;
12658;SDS011;6394;52.488;13.386;2022-12-29T01:55:18;1.63;;;1.00;;
12658;SDS011;6394;52.488;13.386;2022-12-29T01:57:47;2.57;;;1.00;;
12658;SDS011;6394;52.488;13.386;2022-12-29T02:00:16;2.07;;;1.10;;
12658;SDS011;6394;52.488;13.386;2022-12-29T02:02:45;1.00;;;0.80;;
12658;SDS011;6394;52.488;13.386;2022-12-29T02:05:14;2.17;;;1.20;;
12658;SDS011;6394;52.488;13.386;2022-12-29T02:07:44;1.63;;;1.00;;
12658;SDS011;6394;52.488;13.386;2022-12-29T02:10:11;3.67;;;1.10;;
12658;SDS011;6394;52.488;13.386;2022-12-29T02:12:39;1.77;;;1.00;;
12658;SDS011;6394;52.488;13.386;2022-12-29T02:15:08;1.03;;;0.87;;
12658;SDS011;6394;52.488;13.386;2022-12-29T02:17:41;1.10;;;0.87;;
12658;SDS011;6394;52.488;13.386;2022-12-29T02:20:18;1.87;;;1.00;;
12658;SDS011;6394;52.488;13.386;2022-12-29T02:22:55;2.83;;;1.10;;
12658;SDS011;6394;52.488;13.386;2022-12-29T02:25:38;2.00;;;0.90;;
12658;SDS011;6394;52.488;13.386;2022-12-29T02:30:54;1.20;;;1.10;;
12658;SDS011;6394;52.488;13.386;2022-12-29T02:33:28;1.20;;;1.00;;
12658;SDS011;6394;52.488;13.386;2022-12-29T02:35:58;1.13;;;0.90;;
12658;SDS011;6394;52.488;13.386;2022-12-29T02:38:33;2.07;;;1.00;;
12658;SDS011;6394;52.488;13.386;2022-12-29T02:41:05;1.67;;;0.80;;
12658;SDS011;6394;52.488;13.386;2022-12-29T02:43:35;2.10;;;0.90;;
12658;SDS011;6394;52.488;13.386;2022-12-29T02:46:07;2.40;;;0.80;;
12658;SDS011;6394;52.488;13.386;2022-12-29T02:48:37;1.43;;;0.70;;
12658;SDS011;6394;52.488;13.386;2022-12-29T02:51:07;2.30;;;0.80;;
12658;SDS011;6394;52.488;13.386;2022-12-29T02:53:36;1.00;;;0.70;;
12658;SDS011;6394;52.488;13.386;2022-12-29T02:56:23;2.43;;;0.93;;
12658;SDS011;6394;52.488;13.386;2022-12-29T02:58:50;2.33;;;1.03;;
12658;SDS011;6394;52.488;13.386;2022-12-29T03:01:32;3.03;;;1.30;;
12658;SDS011;6394;52.488;13.386;2022-12-29T03:04:10;2.37;;;0.90;;
12658;SDS011;6394;52.488;13.386;2022-12-29T03:06:42;1.33;;;0.67;;
12658;SDS011;6394;52.488;13.386;2022-12-29T03:09:19;1.03;;;0.80;;
12658;SDS011;6394;52.488;13.386;2022-12-29T03:11:48;0.90;;;0.73;;
12658;SDS011;6394;52.488;13.386;2022-12-29T03:14:41;0.90;;;0.60;;
12658;SDS011;6394;52.488;13.386;2022-12-29T03:17:29;2.60;;;0.80;;
12658;SDS011;6394;52.488;13.386;2022-12-29T03:20:02;0.90;;;0.83;;
12658;SDS011;6394;52.488;13.386;2022-12-29T03:22:34;0.63;;;0.63;;
12658;SDS011;6394;52.488;13.386;2022-12-29T03:25:05;3.30;;;1.10;;
12658;SDS011;6394;52.488;13.386;2022-12-29T03:27:36;1.30;;;0.80;;
12658;SDS011;6394;52.488;13.386;2022-12-29T03:30:05;0.93;;;0.70;;
12658;SDS011;6394;52.488;13.386;2022-12-29T03:32:37;1.90;;;0.77;;
12658;SDS011;6394;52.488;13.386;2022-12-29T03:35:05;1.20;;;0.73;;
12658;SDS011;6394;52.488;13.386;2022-12-29T03:37:35;0.73;;;0.70;;
12658;SDS011;6394;52.488;13.386;2022-12-29T03:40:04;2.17;;;0.87;;
12658;SDS011;6394;52.488;13.386;2022-12-29T03:42:32;1.67;;;1.00;;
12658;SDS011;6394;52.488;13.386;2022-12-29T03:45:01;1.40;;;1.00;;
12658;SDS011;6394;52.488;13.386;2022-12-29T03:47:28;2.10;;;0.90;;
12658;SDS011;6394;52.488;13.386;2022-12-29T03:49:57;1.33;;;1.00;;
12658;SDS011;6394;52.488;13.386;2022-12-29T03:52:24;1.63;;;0.90;;
12658;SDS011;6394;52.488;13.386;2022-12-29T03:54:51;1.87;;;0.60;;
12658;SDS011;6394;52.488;13.386;2022-12-29T03:57:19;1.20;;;0.60;;
12658;SDS011;6394;52.488;13.386;2022-12-29T03:59:46;1.47;;;0.80;;
12658;SDS011;6394;52.488;13.386;2022-12-29T04:02:14;0.87;;;0.57;;
12658;SDS011;6394;52.488;13.386;2022-12-29T04:04:41;1.30;;;0.80;;
12658;SDS011;6394;52.488;13.386;2022-12-29T04:07:10;1.33;;;0.83;;
12658;SDS011;6394;52.488;13.386;2022-12-29T04:09:37;1.23;;;0.70;;
12658;SDS011;6394;52.488;13.386;2022-12-29T04:12:04;1.50;;;1.00;;
12658;SDS011;6394;52.488;13.386;2022-12-29T04:14:32;1.80;;;0.83;;
12658;SDS011;6394;52.488;13.386;2022-12-29T04:16:59;1.83;;;0.73;;
12658;SDS011;6394;52.488;13.386;2022-12-29T04:19:26;1.60;;;1.10;;
12658;SDS011;6394;52.488;13.386;2022-12-29T04:21:53;1.87;;;0.73;;
12658;SDS011;6394;52.488;13.386;2022-12-29T04:24:22;1.90;;;0.80;;
12658;SDS011;6394;52.488;13.386;2022-12-29T04:26:49;1.70;;;1.00;;
12658;SDS011;6394;52.488;13.386;2022-12-29T04:29:17;3.33;;;0.70;;
12658;SDS011;6394;52.488;13.386;2022-12-29T04:31:44;1.43;;;0.80;;
12658;SDS011;6394;52.488;13.386;2022-12-29T04:34:11;1.17;;;0.90;;
12658;SDS011;6394;52.488;13.386;2022-12-29T04:36:38;1.27;;;0.67;;
12658;SDS011;6394;52.488;13.386;2022-12-29T04:39:05;1.03;;;0.70;;
12658;SDS011;6394;52.488;13.386;2022-12-29T04:41:34;1.30;;;0.90;;
12658;SDS011;6394;52.488;13.386;2022-12-29T04:44:02;2.70;;;0.97;;
12658;SDS011;6394;52.488;13.386;2022-12-29T04:46:29;1.30;;;0.80;;
12658;SDS011;6394;52.488;13.386;2022-12-29T04:48:56;1.87;;;0.90;;
12658;SDS011;6394;52.488;13.386;2022-12-29T04:51:25;1.90;;;0.80;;
12658;SDS011;6394;52.488;13.386;2022-12-29T04:53:52;1.53;;;0.97;;
12658;SDS011;6394;52.488;13.386;2022-12-29T04:56:20;1.87;;;0.73;;
12658;SDS011;6394;52.488;13.386;2022-12-29T04:58:48;0.87;;;0.67;;
12658;SDS011;6394;52.488;13.386;2022-12-29T05:01:15;1.03;;;0.87;;
12658;SDS011;6394;52.488;13.386;2022-12-29T05:03:43;1.33;;;0.93;;
12658;SDS011;6394;52.488;13.386;2022-12-29T05:06:10;2.23;;;0.60;;
12658;SDS011;6394;52.488;13.386;2022-12-29T05:08:37;2.47;;;0.90;;
12658;SDS011;6394;52.488;13.386;2022-12-29T05:11:04;2.23;;;0.77;;
12658;SDS011;6394;52.488;13.386;2022-12-29T05:13:32;1.93;;;0.90;;
12658;SDS011;6394;52.488;13.386;2022-12-29T05:16:00;1.00;;;0.67;;
12658;SDS011;6394;52.488;13.386;2022-12-29T05:18:28;0.97;;;0.77;;
12658;SDS011;6394;52.488;13.386;2022-12-29T05:20:55;3.07;;;1.20;;
12658;SDS011;6394;52.488;13.386;2022-12-29T05:23:22;0.87;;;0.70;;
12658;SDS011;6394;52.488;13.386;2022-12-29T05:25:49;1.10;;;0.80;;
12658;SDS011;6394;52.488;13.386;2022-12-29T05:28:17;1.83;;;0.80;;
12658;SDS011;6394;52.488;13.386;2022-12-29T05:30:44;1.50;;;0.90;;
12658;SDS011;6394;52.488;13.386;2022-12-29T05:33:15;1.20;;;0.77;;
12658;SDS011;6394;52.488;13.386;2022-12-29T05:35:43;1.13;;;0.80;;
12658;SDS011;6394;52.488;13.386;2022-12-29T05:38:10;2.13;;;0.87;;
12658;SDS011;6394;52.488;13.386;2022-12-29T05:40:37;2.73;;;0.90;;
12658;SDS011;6394;52.488;13.386;2022-12-29T05:43:04;1.13;;;0.80;;
12658;SDS011;6394;52.488;13.386;2022-12-29T05:45:32;1.40;;;1.00;;
12658;SDS011;6394;52.488;13.386;2022-12-29T05:47:59;1.30;;;0.70;;
12658;SDS011;6394;52.488;13.386;2022-12-29T05:50:28;1.90;;;0.80;;
12658;SDS011;6394;52.488;13.386;2022-12-29T05:52:55;0.93;;;0.73;;
12658;SDS011;6394;52.488;13.386;2022-12-29T05:55:22;1.57;;;0.80;;
12658;SDS011;6394;52.488;13.386;2022-12-29T05:57:49;2.03;;;0.80;;
12658;SDS011;6394;52.488;13.386;2022-12-29T06:00:16;2.50;;;0.73;;
12658;SDS011;6394;52.488;13.386;2022-12-29T06:02:44;0.87;;;0.70;;
12658;SDS011;6394;52.488;13.386;2022-12-29T06:05:11;0.60;;;0.50;;
12658;SDS011;6394;52.488;13.386;2022-12-29T06:07:39;0.67;;;0.60;;
12658;SDS011;6394;52.488;13.386;2022-12-29T06:10:07;2.60;;;0.70;;
12658;SDS011;6394;52.488;13.386;2022-12-29T06:12:34;1.50;;;1.00;;
12658;SDS011;6394;52.488;13.386;2022-12-29T06:15:01;1.33;;;0.90;;
12658;SDS011;6394;52.488;13.386;2022-12-29T06:17:28;0.93;;;0.70;;
12658;SDS011;6394;52.488;13.386;2022-12-29T06:19:56;1.90;;;0.90;;
12658;SDS011;6394;52.488;13.386;2022-12-29T06:22:23;0.90;;;0.80;;
12658;SDS011;6394;52.488;13.386;2022-12-29T06:24:52;1.00;;;0.90;;
12658;SDS011;6394;52.488;13.386;2022-12-29T06:27:19;2.20;;;0.90;;
12658;SDS011;6394;52.488;13.386;2022-12-29T06:29:46;1.20;;;0.90;;
12658;SDS011;6394;52.488;13.386;2022-12-29T06:32:14;2.70;;;0.67;;
12658;SDS011;6394;52.488;13.386;2022-12-29T06:34:42;1.93;;;0.90;;
12658;SDS011;6394;52.488;13.386;2022-12-29T06:37:09;1.90;;;0.90;;
12658;SDS011;6394;52.488;13.386;2022-12-29T06:39:37;0.60;;;0.60;;
12658;SDS011;6394;52.488;13.386;2022-12-29T06:42:11;1.10;;;0.57;;
12658;SDS011;6394;52.488;13.386;2022-12-29T06:44:38;1.80;;;0.63;;
12658;SDS011;6394;52.488;13.386;2022-12-29T06:47:06;1.33;;;0.60;;
12658;SDS011;6394;52.488;13.386;2022-12-29T06:49:33;1.97;;;0.70;;
12658;SDS011;6394;52.488;13.386;2022-12-29T06:52:00;0.87;;;0.67;;
12658;SDS011;6394;52.488;13.386;2022-12-29T06:54:29;2.33;;;0.87;;
12658;SDS011;6394;52.488;13.386;2022-12-29T06:56:56;2.20;;;0.60;;
12658;SDS011;6394;52.488;13.386;2022-12-29T06:59:25;0.67;;;0.50;;
12658;SDS011;6394;52.488;13.386;2022-12-29T07:01:52;1.67;;;0.70;;
12658;SDS011;6394;52.488;13.386;2022-12-29T07:04:20;1.23;;;0.73;;
12658;SDS011;6394;52.488;13.386;2022-12-29T07:06:47;0.73;;;0.57;;
12658;SDS011;6394;52.488;13.386;2022-12-29T07:09:14;0.90;;;0.80;;
12658;SDS011;6394;52.488;13.386;2022-12-29T07:11:42;0.70;;;0.70;;
12658;SDS011;6394;52.488;13.386;2022-12-29T07:14:10;1.37;;;0.70;;
12658;SDS011;6394;52.488;13.386;2022-12-29T07:16:38;1.60;;;0.60;;
12658;SDS011;6394;52.488;13.386;2022-12-29T07:19:06;2.70;;;0.73;;
12658;SDS011;6394;52.488;13.386;2022-12-29T07:21:33;1.37;;;0.60;;
12658;SDS011;6394;52.488;13.386;2022-12-29T07:24:00;1.10;;;1.00;;
12658;SDS011;6394;52.488;13.386;2022-12-29T07:26:27;1.50;;;0.73;;
12658;SDS011;6394;52.488;13.386;2022-12-29T07:28:54;0.70;;;0.60;;
12658;SDS011;6394;52.488;13.386;2022-12-29T07:31:23;2.83;;;0.90;;
12658;SDS011;6394;52.488;13.386;2022-12-29T07:33:52;1.10;;;0.80;;
12658;SDS011;6394;52.488;13.386;2022-12-29T07:36:19;0.90;;;0.47;;
12658;SDS011;6394;52.488;13.386;2022-12-29T07:38:46;1.80;;;0.83;;
12658;SDS011;6394;52.488;13.386;2022-12-29T07:41:14;2.53;;;0.77;;
12658;SDS011;6394;52.488;13.386;2022-12-29T07:43:41;0.70;;;0.60;;
12658;SDS011;6394;52.488;13.386;2022-12-29T07:46:08;0.80;;;0.60;;
12658;SDS011;6394;52.488;13.386;2022-12-29T07:48:36;1.10;;;0.80;;
12658;SDS011;6394;52.488;13.386;2022-12-29T07:51:04;0.83;;;0.80;;
12658;SDS011;6394;52.488;13.386;2022-12-29T07:53:32;1.80;;;0.67;;
12658;SDS011;6394;52.488;13.386;2022-12-29T07:55:59;1.57;;;0.53;;
12658;SDS011;6394;52.488;13.386;2022-12-29T07:58:27;2.03;;;0.70;;
12658;SDS011;6394;52.488;13.386;2022-12-29T08:00:55;1.47;;;0.90;;
12658;SDS011;6394;52.488;13.386;2022-12-29T08:03:23;1.00;;;0.60;;
12658;SDS011;6394;52.488;13.386;2022-12-29T08:05:51;2.03;;;0.67;;
12658;SDS011;6394;52.488;13.386;2022-12-29T08:08:20;0.60;;;0.53;;
12658;SDS011;6394;52.488;13.386;2022-12-29T08:10:47;3.13;;;0.70;;
12658;SDS011;6394;52.488;13.386;2022-12-29T08:13:14;1.47;;;0.70;;
12658;SDS011;6394;52.488;13.386;2022-12-29T08:15:42;1.33;;;0.70;;
12658;SDS011;6394;52.488;13.386;2022-12-29T08:18:09;1.50;;;0.80;;
12658;SDS011;6394;52.488;13.386;2022-12-29T08:20:37;1.80;;;0.77;;
12658;SDS011;6394;52.488;13.386;2022-12-29T08:23:04;0.57;;;0.50;;
12658;SDS011;6394;52.488;13.386;2022-12-29T08:25:33;0.73;;;0.60;;
12658;SDS011;6394;52.488;13.386;2022-12-29T08:28:00;4.83;;;0.80;;
12658;SDS011;6394;52.488;13.386;2022-12-29T08:30:27;1.10;;;0.60;;
12658;SDS011;6394;52.488;13.386;2022-12-29T08:32:54;1.23;;;0.80;;
12658;SDS011;6394;52.488;13.386;2022-12-29T08:35:22;0.60;;;0.40;;
12658;SDS011;6394;52.488;13.386;2022-12-29T08:37:49;0.77;;;0.50;;
12658;SDS011;6394;52.488;13.386;2022-12-29T08:40:16;2.10;;;0.70;;
12658;SDS011;6394;52.488;13.386;2022-12-29T08:42:44;1.17;;;0.57;;
12658;SDS011;6394;52.488;13.386;2022-12-29T08:45:12;0.77;;;0.53;;
12658;SDS011;6394;52.488;13.386;2022-12-29T08:47:39;2.17;;;0.80;;
12658;SDS011;6394;52.488;13.386;2022-12-29T08:50:06;2.17;;;0.80;;
12658;SDS011;6394;52.488;13.386;2022-12-29T08:52:34;1.20;;;0.73;;
12658;SDS011;6394;52.488;13.386;2022-12-29T08:55:01;2.60;;;0.63;;
12658;SDS011;6394;52.488;13.386;2022-12-29T08:57:28;0.80;;;0.60;;
12658;SDS011;6394;52.488;13.386;2022-12-29T08:59:56;1.50;;;0.50;;
12658;SDS011;6394;52.488;13.386;2022-12-29T09:02:24;1.10;;;0.70;;
12658;SDS011;6394;52.488;13.386;2022-12-29T09:04:51;1.50;;;0.40;;
12658;SDS011;6394;52.488;13.386;2022-12-29T09:07:18;1.00;;;0.70;;
12658;SDS011;6394;52.488;13.386;2022-12-29T09:09:46;0.80;;;0.63;;
12658;SDS011;6394;52.488;13.386;2022-12-29T09:12:13;1.80;;;0.50;;
12658;SDS011;6394;52.488;13.386;2022-12-29T09:14:40;0.80;;;0.60;;
12658;SDS011;6394;52.488;13.386;2022-12-29T09:17:10;1.97;;;0.73;;
12658;SDS011;6394;52.488;13.386;2022-12-29T09:19:55;0.97;;;0.67;;
12658;SDS011;6394;52.488;13.386;2022-12-29T09:22:24;0.77;;;0.60;;
12658;SDS011;6394;52.488;13.386;2022-12-29T09:24:51;1.57;;;0.80;;
12658;SDS011;6394;52.488;13.386;2022-12-29T09:27:18;0.83;;;0.60;;
12658;SDS011;6394;52.488;13.386;2022-12-29T09:29:45;2.10;;;0.60;;
12658;SDS011;6394;52.488;13.386;2022-12-29T09:32:14;2.07;;;0.73;;
12658;SDS011;6394;52.488;13.386;2022-12-29T09:34:41;2.27;;;0.70;;
12658;SDS011;6394;52.488;13.386;2022-12-29T09:37:08;1.57;;;0.83;;
12658;SDS011;6394;52.488;13.386;2022-12-29T09:39:36;3.10;;;0.80;;
12658;SDS011;6394;52.488;13.386;2022-12-29T09:42:05;1.33;;;0.60;;
12658;SDS011;6394;52.488;13.386;2022-12-29T09:44:38;0.77;;;0.57;;
12658;SDS011;6394;52.488;13.386;2022-12-29T09:47:10;3.53;;;0.70;;
12658;SDS011;6394;52.488;13.386;2022-12-29T09:49:40;2.03;;;0.90;;
12658;SDS011;6394;52.488;13.386;2022-12-29T09:52:11;1.33;;;0.57;;
12658;SDS011;6394;52.488;13.386;2022-12-29T09:54:41;2.67;;;0.40;;
12658;SDS011;6394;52.488;13.386;2022-12-29T09:57:16;0.60;;;0.40;;
12658;SDS011;6394;52.488;13.386;2022-12-29T09:59:45;0.83;;;0.70;;
12658;SDS011;6394;52.488;13.386;2022-12-29T10:02:16;0.57;;;0.50;;
12658;SDS011;6394;52.488;13.386;2022-12-29T10:04:49;0.90;;;0.70;;
12658;SDS011;6394;52.488;13.386;2022-12-29T10:07:17;2.20;;;0.47;;
12658;SDS011;6394;52.488;13.386;2022-12-29T10:09:53;1.00;;;0.60;;
12658;SDS011;6394;52.488;13.386;2022-12-29T10:12:23;0.60;;;0.50;;
12658;SDS011;6394;52.488;13.386;2022-12-29T10:14:55;1.57;;;0.57;;
12658;SDS011;6394;52.488;13.386;2022-12-29T10:17:27;1.63;;;0.63;;
12658;SDS011;6394;52.488;13.386;2022-12-29T10:20:05;2.10;;;0.50;;
12658;SDS011;6394;52.488;13.386;2022-12-29T10:22:43;0.67;;;0.50;;
12658;SDS011;6394;52.488;13.386;2022-12-29T10:25:17;1.37;;;0.50;;
12658;SDS011;6394;52.488;13.386;2022-12-29T10:27:46;0.93;;;0.50;;
12658;SDS011;6394;52.488;13.386;2022-12-29T10:30:14;1.30;;;0.43;;
12658;SDS011;6394;52.488;13.386;2022-12-29T10:32:43;3.80;;;0.70;;
12658;SDS011;6394;52.488;13.386;2022-12-29T10:35:16;1.20;;;0.60;;
12658;SDS011;6394;52.488;13.386;2022-12-29T10:37:45;1.33;;;0.63;;
12658;SDS011;6394;52.488;13.386;2022-12-29T10:40:18;1.30;;;0.47;;
12658;SDS011;6394;52.488;13.386;2022-12-29T10:42:48;1.17;;;0.40;;
12658;SDS011;6394;52.488;13.386;2022-12-29T10:45:17;2.43;;;0.60;;
12658;SDS011;6394;52.488;13.386;2022-12-29T10:47:50;1.00;;;0.40;;
12658;SDS011;6394;52.488;13.386;2022-12-29T10:50:20;2.40;;;0.50;;
12658;SDS011;6394;52.488;13.386;2022-12-29T10:52:47;1.47;;;0.80;;
12658;SDS011;6394;52.488;13.386;2022-12-29T10:55:15;1.03;;;0.50;;
12658;SDS011;6394;52.488;13.386;2022-12-29T10:57:44;1.17;;;0.50;;
12658;SDS011;6394;52.488;13.386;2022-12-29T11:00:13;1.17;;;0.50;;
12658;SDS011;6394;52.488;13.386;2022-12-29T11:02:43;0.23;;;0.20;;
12658;SDS011;6394;52.488;13.386;2022-12-29T11:05:16;1.30;;;0.60;;
12658;SDS011;6394;52.488;13.386;2022-12-29T11:07:57;1.63;;;0.63;;
12658;SDS011;6394;52.488;13.386;2022-12-29T11:10:29;2.60;;;0.70;;
12658;SDS011;6394;52.488;13.386;2022-12-29T11:13:00;0.97;;;0.63;;
12658;SDS011;6394;52.488;13.386;2022-12-29T11:15:28;0.60;;;0.60;;
12658;SDS011;6394;52.488;13.386;2022-12-29T11:18:07;1.57;;;0.50;;
12658;SDS011;6394;52.488;13.386;2022-12-29T11:20:43;1.47;;;0.50;;
12658;SDS011;6394;52.488;13.386;2022-12-29T11:23:23;1.53;;;0.53;;
12658;SDS011;6394;52.488;13.386;2022-12-29T11:26:05;1.37;;;0.50;;
12658;SDS011;6394;52.488;13.386;2022-12-29T11:28:32;0.87;;;0.53;;
12658;SDS011;6394;52.488;13.386;2022-12-29T11:31:00;0.73;;;0.50;;
12658;SDS011;6394;52.488;13.386;2022-12-29T11:33:28;0.83;;;0.40;;
12658;SDS011;6394;52.488;13.386;2022-12-29T11:35:56;1.50;;;0.60;;
12658;SDS011;6394;52.488;13.386;2022-12-29T11:38:26;0.63;;;0.60;;
12658;SDS011;6394;52.488;13.386;2022-12-29T11:40:57;0.90;;;0.60;;
12658;SDS011;6394;52.488;13.386;2022-12-29T11:43:26;0.57;;;0.30;;
12658;SDS011;6394;52.488;13.386;2022-12-29T11:45:58;0.80;;;0.60;;
12658;SDS011;6394;52.488;13.386;2022-12-29T11:48:29;0.80;;;0.40;;
12658;SDS011;6394;52.488;13.386;2022-12-29T11:50:58;0.47;;;0.40;;
12658;SDS011;6394;52.488;13.386;2022-12-29T11:53:28;0.87;;;0.40;;
12658;SDS011;6394;52.488;13.386;2022-12-29T11:55:57;2.33;;;0.30;;
12658;SDS011;6394;52.488;13.386;2022-12-29T11:58:28;0.70;;;0.40;;
12658;SDS011;6394;52.488;13.386;2022-12-29T12:00:57;0.40;;;0.40;;
12658;SDS011;6394;52.488;13.386;2022-12-29T12:03:27;1.97;;;0.53;;
12658;SDS011;6394;52.488;13.386;2022-12-29T12:05:55;0.40;;;0.27;;
12658;SDS011;6394;52.488;13.386;2022-12-29T12:08:29;1.97;;;0.30;;
12658;SDS011;6394;52.488;13.386;2022-12-29T12:10:58;0.40;;;0.30;;
12658;SDS011;6394;52.488;13.386;2022-12-29T12:13:29;1.17;;;0.40;;
12658;SDS011;6394;52.488;13.386;2022-12-29T12:15:58;2.30;;;0.30;;
12658;SDS011;6394;52.488;13.386;2022-12-29T12:18:32;0.53;;;0.37;;
12658;SDS011;6394;52.488;13.386;2022-12-29T12:21:04;0.90;;;0.30;;
12658;SDS011;6394;52.488;13.386;2022-12-29T12:23:38;1.00;;;0.30;;
12658;SDS011;6394;52.488;13.386;2022-12-29T12:26:09;1.40;;;0.50;;
12658;SDS011;6394;52.488;13.386;2022-12-29T12:28:40;0.67;;;0.17;;
12658;SDS011;6394;52.488;13.386;2022-12-29T12:31:13;1.47;;;0.37;;
12658;SDS011;6394;52.488;13.386;2022-12-29T12:33:43;2.77;;;0.43;;
12658;SDS011;6394;52.488;13.386;2022-12-29T12:36:22;1.07;;;0.50;;
12658;SDS011;6394;52.488;13.386;2022-12-29T12:38:55;2.93;;;0.70;;
12658;SDS011;6394;52.488;13.386;2022-12-29T12:41:25;1.50;;;0.67;;
12658;SDS011;6394;52.488;13.386;2022-12-29T12:43:56;2.20;;;0.60;;
12658;SDS011;6394;52.488;13.386;2022-12-29T12:46:40;0.97;;;0.40;;
12658;SDS011;6394;52.488;13.386;2022-12-29T12:49:19;0.67;;;0.40;;
12658;SDS011;6394;52.488;13.386;2022-12-29T12:51:50;0.70;;;0.40;;
12658;SDS011;6394;52.488;13.386;2022-12-29T12:54:25;1.87;;;0.50;;
12658;SDS011;6394;52.488;13.386;2022-12-29T12:57:05;0.77;;;0.67;;
12658;SDS011;6394;52.488;13.386;2022-12-29T12:59:38;1.87;;;0.50;;
12658;SDS011;6394;52.488;13.386;2022-12-29T13:02:15;1.00;;;0.40;;
12658;SDS011;6394;52.488;13.386;2022-12-29T13:05:03;0.60;;;0.30;;
12658;SDS011;6394;52.488;13.386;2022-12-29T13:07:36;0.93;;;0.30;;
12658;SDS011;6394;52.488;13.386;2022-12-29T13:10:15;1.00;;;0.63;;
12658;SDS011;6394;52.488;13.386;2022-12-29T13:12:46;1.23;;;0.50;;
12658;SDS011;6394;52.488;13.386;2022-12-29T13:15:18;1.40;;;0.50;;
12658;SDS011;6394;52.488;13.386;2022-12-29T13:17:49;1.17;;;0.60;;
12658;SDS011;6394;52.488;13.386;2022-12-29T13:20:20;2.40;;;0.50;;
12658;SDS011;6394;52.488;13.386;2022-12-29T13:22:50;1.60;;;0.63;;
12658;SDS011;6394;52.488;13.386;2022-12-29T13:25:27;0.70;;;0.60;;
12658;SDS011;6394;52.488;13.386;2022-12-29T13:27:59;0.73;;;0.30;;
12658;SDS011;6394;52.488;13.386;2022-12-29T13:30:29;0.80;;;0.40;;
12658;SDS011;6394;52.488;13.386;2022-12-29T13:33:00;1.40;;;0.60;;
12658;SDS011;6394;52.488;13.386;2022-12-29T13:35:35;0.93;;;0.50;;
12658;SDS011;6394;52.488;13.386;2022-12-29T13:38:10;0.73;;;0.40;;
12658;SDS011;6394;52.488;13.386;2022-12-29T13:40:41;1.60;;;0.70;;
12658;SDS011;6394;52.488;13.386;2022-12-29T13:43:10;0.50;;;0.50;;
12658;SDS011;6394;52.488;13.386;2022-12-29T13:45:37;1.97;;;0.40;;
12658;SDS011;6394;52.488;13.386;2022-12-29T13:48:07;1.07;;;0.50;;
12658;SDS011;6394;52.488;13.386;2022-12-29T13:50:38;0.70;;;0.50;;
12658;SDS011;6394;52.488;13.386;2022-12-29T13:53:08;1.27;;;0.80;;
12658;SDS011;6394;52.488;13.386;2022-12-29T13:55:39;0.50;;;0.50;;
12658;SDS011;6394;52.488;13.386;2022-12-29T13:58:09;1.13;;;0.57;;
12658;SDS011;6394;52.488;13.386;2022-12-29T14:00:42;2.73;;;0.70;;
12658;SDS011;6394;52.488;13.386;2022-12-29T14:03:18;3.17;;;0.80;;
12658;SDS011;6394;52.488;13.386;2022-12-29T14:06:02;1.23;;;0.67;;
12658;SDS011;6394;52.488;13.386;2022-12-29T14:08:30;1.53;;;0.70;;
12658;SDS011;6394;52.488;13.386;2022-12-29T14:11:04;1.73;;;0.80;;
12658;SDS011;6394;52.488;13.386;2022-12-29T14:13:35;1.10;;;0.70;;
12658;SDS011;6394;52.488;13.386;2022-12-29T14:16:04;1.20;;;0.77;;
12658;SDS011;6394;52.488;13.386;2022-12-29T14:18:32;2.17;;;0.80;;
12658;SDS011;6394;52.488;13.386;2022-12-29T14:21:00;2.93;;;0.87;;
12658;SDS011;6394;52.488;13.386;2022-12-29T14:23:35;2.53;;;0.97;;
12658;SDS011;6394;52.488;13.386;2022-12-29T14:26:11;1.27;;;0.80;;
12658;SDS011;6394;52.488;13.386;2022-12-29T14:28:40;1.40;;;0.43;;
12658;SDS011;6394;52.488;13.386;2022-12-29T14:36:33;3.00;;;0.97;;
12658;SDS011;6394;52.488;13.386;2022-12-29T14:39:00;2.93;;;1.00;;
12658;SDS011;6394;52.488;13.386;2022-12-29T14:41:30;2.70;;;0.90;;
12658;SDS011;6394;52.488;13.386;2022-12-29T14:44:03;1.73;;;1.07;;
12658;SDS011;6394;52.488;13.386;2022-12-29T14:46:48;1.20;;;0.77;;
12658;SDS011;6394;52.488;13.386;2022-12-29T14:49:17;1.00;;;0.60;;
12658;SDS011;6394;52.488;13.386;2022-12-29T14:51:45;1.60;;;0.80;;
12658;SDS011;6394;52.488;13.386;2022-12-29T14:57:00;1.73;;;1.03;;
12658;SDS011;6394;52.488;13.386;2022-12-29T14:59:29;3.90;;;1.60;;
12658;SDS011;6394;52.488;13.386;2022-12-29T15:01:57;2.97;;;2.37;;
12658;SDS011;6394;52.488;13.386;2022-12-29T15:04:25;1.80;;;0.90;;
12658;SDS011;6394;52.488;13.386;2022-12-29T15:06:53;1.43;;;0.83;;
12658;SDS011;6394;52.488;13.386;2022-12-29T15:09:23;1.97;;;0.87;;
12658;SDS011;6394;52.488;13.386;2022-12-29T15:11:52;1.47;;;1.00;;
12658;SDS011;6394;52.488;13.386;2022-12-29T15:14:29;1.87;;;0.87;;
12658;SDS011;6394;52.488;13.386;2022-12-29T15:16:56;1.50;;;0.97;;